createdAt,value
2022-12-14T00:01:25.734Z,23.17
2022-12-14T00:03:53.613Z,27.53
2022-12-14T00:06:22.277Z,23.65
2022-12-14T00:08:51.423Z,22.75
2022-12-14T00:11:25.031Z,25.47
2022-12-14T00:13:57.655Z,23.67
2022-12-14T00:16:26.494Z,25.25
2022-12-14T00:18:55.866Z,21.73
2022-12-14T00:21:23.166Z,22.65
2022-12-14T00:23:51.195Z,24.88
2022-12-14T00:26:23.444Z,22.98
2022-12-14T00:28:52.363Z,28.02
2022-12-14T00:31:20.139Z,25.10
2022-12-14T00:33:47.450Z,24.05
2022-12-14T00:36:14.771Z,26.38
2022-12-14T00:38:42.214Z,24.25
2022-12-14T00:41:09.826Z,24.98
2022-12-14T00:43:37.087Z,24.10
2022-12-14T00:46:03.896Z,25.70
2022-12-14T00:48:31.545Z,24.48
2022-12-14T00:50:58.751Z,23.30
2022-12-14T00:53:25.853Z,25.45
2022-12-14T00:55:52.765Z,20.70
2022-12-14T00:58:21.825Z,24.52
2022-12-14T01:00:59.250Z,25.83
2022-12-14T01:03:26.637Z,24.02
2022-12-14T01:05:53.736Z,27.80
2022-12-14T01:08:20.934Z,24.75
2022-12-14T01:10:47.674Z,23.92
2022-12-14T01:13:14.387Z,25.80
2022-12-14T01:15:41.150Z,25.30
2022-12-14T01:18:07.953Z,24.50
2022-12-14T01:20:34.662Z,25.17
2022-12-14T01:23:01.354Z,25.05
2022-12-14T01:25:28.191Z,24.45
2022-12-14T01:27:54.895Z,25.48
2022-12-14T01:30:21.722Z,25.10
2022-12-14T01:32:48.531Z,22.20
2022-12-14T01:35:15.334Z,26.42
2022-12-14T01:37:41.993Z,26.45
2022-12-14T01:40:09.204Z,26.85
2022-12-14T01:42:36.965Z,27.88
2022-12-14T01:45:05.820Z,25.10
2022-12-14T01:47:42.963Z,23.63
2022-12-14T01:50:38.879Z,25.67
2022-12-14T01:53:11.946Z,23.25
2022-12-14T01:55:52.058Z,25.17
2022-12-14T01:58:24.528Z,26.92
2022-12-14T02:00:58.414Z,25.60
2022-12-14T02:03:34.896Z,24.27
2022-12-14T02:06:07.604Z,30.55
2022-12-14T02:08:35.186Z,26.40
2022-12-14T02:11:03.018Z,25.92
2022-12-14T02:13:33.826Z,25.33
2022-12-14T02:16:00.885Z,26.83
2022-12-14T02:18:30.423Z,26.63
2022-12-14T02:21:12.270Z,27.73
2022-12-14T02:24:14.585Z,26.08
2022-12-14T02:27:02.976Z,26.50
2022-12-14T02:29:35.554Z,28.13
2022-12-14T02:32:11.627Z,26.58
2022-12-14T02:34:47.214Z,27.48
2022-12-14T02:37:39.150Z,26.90
2022-12-14T02:40:38.261Z,25.40
2022-12-14T02:43:25.573Z,25.70
2022-12-14T02:46:16.982Z,26.15
2022-12-14T02:48:49.836Z,27.73
2022-12-14T02:51:54.717Z,27.35
2022-12-14T02:54:36.078Z,26.02
2022-12-14T02:57:19.486Z,26.05
2022-12-14T02:59:48.879Z,30.42
2022-12-14T03:02:16.972Z,28.67
2022-12-14T03:04:48.057Z,28.67
2022-12-14T03:07:36.773Z,28.38
2022-12-14T03:10:19.602Z,27.15
2022-12-14T03:12:54.142Z,31.23
2022-12-14T03:15:23.310Z,28.13
2022-12-14T03:17:55.232Z,30.33
2022-12-14T03:20:26.075Z,26.50
2022-12-14T03:23:10.924Z,28.10
2022-12-14T03:25:47.487Z,28.60
2022-12-14T03:28:32.616Z,27.05
2022-12-14T03:31:10.587Z,27.15
2022-12-14T03:33:38.793Z,29.55
2022-12-14T03:36:11.351Z,30.88
2022-12-14T03:38:42.976Z,29.85
2022-12-14T03:41:12.816Z,28.17
2022-12-14T03:44:08.187Z,25.75
2022-12-14T03:46:55.178Z,28.95
2022-12-14T03:49:27.636Z,29.95
2022-12-14T03:52:13.083Z,26.17
2022-12-14T03:54:54.766Z,27.83
2022-12-14T03:57:56.612Z,29.05
2022-12-14T04:00:24.836Z,27.63
2022-12-14T04:03:14.274Z,30.58
2022-12-14T04:05:50.060Z,27.48
2022-12-14T04:08:26.092Z,27.08
2022-12-14T04:11:15.781Z,28.30
2022-12-14T04:14:05.792Z,25.15
2022-12-14T04:19:26.718Z,29.33
2022-12-14T04:22:09.978Z,28.92
2022-12-14T04:25:02.978Z,28.23
2022-12-14T04:27:44.939Z,29.13
2022-12-14T04:30:13.600Z,29.77
2022-12-14T04:32:42.679Z,26.83
2022-12-14T04:35:15.146Z,30.10
2022-12-14T04:37:45.332Z,27.55
2022-12-14T04:40:27.789Z,29.73
2022-12-14T04:43:03.241Z,30.35
2022-12-14T04:45:47.170Z,31.33
2022-12-14T04:48:38.009Z,31.83
2022-12-14T04:51:10.906Z,29.83
2022-12-14T04:53:41.466Z,27.50
2022-12-14T04:56:24.326Z,27.52
2022-12-14T04:58:51.293Z,27.92
2022-12-14T05:01:38.330Z,28.42
2022-12-14T05:04:17.087Z,26.45
2022-12-14T05:07:18.163Z,30.02
2022-12-14T05:09:51.039Z,26.52
2022-12-14T05:12:23.521Z,31.88
2022-12-14T05:14:59.040Z,30.33
2022-12-14T05:17:28.138Z,28.77
2022-12-14T05:19:54.879Z,27.90
2022-12-14T05:22:22.611Z,27.45
2022-12-14T05:24:49.381Z,29.17
2022-12-14T05:27:16.188Z,30.15
2022-12-14T05:29:43.043Z,28.15
2022-12-14T05:32:12.662Z,27.33
2022-12-14T05:34:39.719Z,29.70
2022-12-14T05:37:06.447Z,28.38
2022-12-14T05:39:33.135Z,29.17
2022-12-14T05:41:59.881Z,26.67
2022-12-14T05:44:26.602Z,27.40
2022-12-14T05:46:53.955Z,28.85
2022-12-14T05:49:20.646Z,31.45
2022-12-14T05:51:49.227Z,28.13
2022-12-14T05:54:15.939Z,29.08
2022-12-14T05:56:42.725Z,27.02
2022-12-14T05:59:12.615Z,29.15
2022-12-14T06:01:39.357Z,29.30
2022-12-14T06:04:06.189Z,30.45
2022-12-14T06:06:33.854Z,27.27
2022-12-14T06:09:00.583Z,29.27
2022-12-14T06:11:27.425Z,28.80
2022-12-14T06:13:54.192Z,31.13
2022-12-14T06:16:23.851Z,30.20
2022-12-14T06:18:56.042Z,32.78
2022-12-14T06:21:28.462Z,32.53
2022-12-14T06:23:55.958Z,30.27
2022-12-14T06:26:23.617Z,30.00
2022-12-14T06:28:50.700Z,30.67
2022-12-14T06:31:19.913Z,29.95
2022-12-14T06:33:47.544Z,30.33
2022-12-14T06:36:18.952Z,30.85
2022-12-14T06:38:46.304Z,29.23
2022-12-14T06:41:13.056Z,29.63
2022-12-14T06:43:39.903Z,30.05
2022-12-14T06:46:15.137Z,32.85
2022-12-14T06:48:42.684Z,30.27
2022-12-14T06:51:09.923Z,30.67
2022-12-14T06:53:36.811Z,32.67
2022-12-14T06:56:10.443Z,29.98
2022-12-14T06:58:37.701Z,33.25
2022-12-14T07:01:20.733Z,33.85
2022-12-14T07:03:53.496Z,30.92
2022-12-14T07:06:21.703Z,33.92
2022-12-14T07:08:49.102Z,31.92
2022-12-14T07:11:17.320Z,32.20
2022-12-14T07:13:44.348Z,33.15
2022-12-14T07:16:17.055Z,31.38
2022-12-14T07:18:44.068Z,33.88
2022-12-14T07:21:13.402Z,33.88
2022-12-14T07:23:42.744Z,37.90
2022-12-14T07:26:15.328Z,36.00
2022-12-14T07:28:42.748Z,33.50
2022-12-14T07:31:28.770Z,35.85
2022-12-14T07:33:57.744Z,38.00
2022-12-14T07:36:26.872Z,33.38
2022-12-14T07:38:55.774Z,34.27
2022-12-14T07:41:29.385Z,35.38
2022-12-14T07:43:56.960Z,36.53
2022-12-14T07:46:25.973Z,36.53
2022-12-14T07:48:54.926Z,37.15
2022-12-14T07:51:25.310Z,35.53
2022-12-14T07:53:52.610Z,33.92
2022-12-14T07:56:22.665Z,35.60
2022-12-14T08:01:18.547Z,35.95
2022-12-14T08:03:50.731Z,34.97
2022-12-14T08:06:19.212Z,37.35
2022-12-14T08:08:46.423Z,37.65
2022-12-14T08:11:14.042Z,33.72
2022-12-14T08:13:43.072Z,43.50
2022-12-14T08:16:13.702Z,36.15
2022-12-14T08:18:41.231Z,38.42
2022-12-14T08:21:09.668Z,33.35
2022-12-14T08:23:37.556Z,35.15
2022-12-14T08:26:06.303Z,37.90
2022-12-14T08:28:35.804Z,33.22
2022-12-14T08:31:14.173Z,39.65
2022-12-14T08:33:41.983Z,35.20
2022-12-14T08:36:18.009Z,35.63
2022-12-14T08:38:45.298Z,34.38
2022-12-14T08:41:13.897Z,33.63
2022-12-14T08:43:41.196Z,33.63
2022-12-14T08:46:09.265Z,33.08
2022-12-14T08:48:36.849Z,38.45
2022-12-14T08:51:09.681Z,33.50
2022-12-14T08:53:38.046Z,37.10
2022-12-14T08:56:10.600Z,36.40
2022-12-14T08:58:39.111Z,42.20
2022-12-14T09:01:07.469Z,37.47
2022-12-14T09:03:34.728Z,38.35
2022-12-14T09:06:03.311Z,35.17
2022-12-14T09:08:31.036Z,36.58
2022-12-14T09:10:57.796Z,39.20
2022-12-14T09:13:24.519Z,34.03
2022-12-14T09:16:02.330Z,37.28
2022-12-14T09:18:30.155Z,39.05
2022-12-14T09:20:57.600Z,33.92
2022-12-14T09:23:25.858Z,34.10
2022-12-14T09:26:22.648Z,34.95
2022-12-14T09:28:54.279Z,36.25
2022-12-14T09:31:23.819Z,33.85
2022-12-14T09:33:51.210Z,36.65
2022-12-14T09:36:23.361Z,37.35
2022-12-14T09:38:52.518Z,35.42
2022-12-14T09:41:37.936Z,35.35
2022-12-14T09:44:25.491Z,34.13
2022-12-14T09:46:54.922Z,30.15
2022-12-14T09:49:40.032Z,30.90
2022-12-14T09:52:15.779Z,35.10
2022-12-14T09:54:44.418Z,33.80
2022-12-14T09:57:18.556Z,33.22
2022-12-14T09:59:45.316Z,38.05
2022-12-14T10:02:50.483Z,39.83
2022-12-14T10:05:21.211Z,35.90
2022-12-14T10:08:09.174Z,37.50
2022-12-14T10:10:44.577Z,34.38
2022-12-14T10:13:11.265Z,46.20
2022-12-14T10:15:37.991Z,33.63
2022-12-14T10:18:27.481Z,33.92
2022-12-14T10:21:11.706Z,36.45
2022-12-14T10:24:06.836Z,37.78
2022-12-14T10:26:44.088Z,33.90
2022-12-14T10:29:17.788Z,35.72
2022-12-14T10:31:53.225Z,40.00
2022-12-14T10:34:23.524Z,31.85
2022-12-14T10:37:30.700Z,33.92
2022-12-14T10:40:16.403Z,36.88
2022-12-14T10:43:08.373Z,36.17
2022-12-14T10:45:40.795Z,34.40
2022-12-14T10:48:26.527Z,39.72
2022-12-14T10:51:00.017Z,38.53
2022-12-14T10:53:41.147Z,35.90
2022-12-14T10:56:16.251Z,35.38
2022-12-14T10:58:42.987Z,34.65
2022-12-14T11:01:14.811Z,37.25
2022-12-14T11:03:43.816Z,32.90
2022-12-14T11:06:19.040Z,34.17
2022-12-14T11:08:48.554Z,36.80
2022-12-14T11:11:24.741Z,38.25
2022-12-14T11:14:09.388Z,38.50
2022-12-14T11:16:39.832Z,36.17
2022-12-14T11:19:16.778Z,37.80
2022-12-14T11:21:44.126Z,35.55
2022-12-14T11:24:28.210Z,34.85
2022-12-14T11:27:01.436Z,35.55
2022-12-14T11:29:34.610Z,34.38
2022-12-14T11:32:01.779Z,36.95
2022-12-14T11:34:39.933Z,39.47
2022-12-14T11:37:14.363Z,38.42
2022-12-14T11:39:44.987Z,37.70
2022-12-14T11:42:19.047Z,37.35
2022-12-14T11:44:47.600Z,35.65
2022-12-14T11:47:21.587Z,40.40
2022-12-14T11:49:57.730Z,34.92
2022-12-14T11:52:26.217Z,34.88
2022-12-14T11:54:52.902Z,34.15
2022-12-14T11:57:26.877Z,35.92
2022-12-14T11:59:57.604Z,30.70
2022-12-14T12:02:30.056Z,32.53
2022-12-14T12:04:58.997Z,35.53
2022-12-14T12:07:33.892Z,33.22
2022-12-14T12:10:07.936Z,36.65
2022-12-14T12:12:35.471Z,36.55
2022-12-14T12:15:03.086Z,33.33
2022-12-14T12:17:42.324Z,36.35
2022-12-14T12:20:27.484Z,37.15
2022-12-14T12:22:59.014Z,34.75
2022-12-14T12:25:36.995Z,33.95
2022-12-14T12:28:23.227Z,36.88
2022-12-14T12:30:53.155Z,36.13
2022-12-14T12:33:31.504Z,35.28
2022-12-14T12:36:05.273Z,33.70
2022-12-14T12:38:55.686Z,41.22
2022-12-14T12:41:44.607Z,38.67
2022-12-14T12:44:44.175Z,45.85
2022-12-14T12:47:41.548Z,40.95
2022-12-14T12:50:18.904Z,39.20
2022-12-14T12:53:12.510Z,39.65
2022-12-14T12:55:47.216Z,37.33
2022-12-14T12:58:24.952Z,39.65
2022-12-14T13:00:55.659Z,41.30
2022-12-14T13:03:37.581Z,38.45
2022-12-14T13:06:20.343Z,40.47
2022-12-14T13:08:51.657Z,41.88
2022-12-14T13:11:26.548Z,42.10
2022-12-14T13:13:58.099Z,42.13
2022-12-14T13:16:37.608Z,43.05
2022-12-14T13:19:48.936Z,45.08
2022-12-14T13:22:06.589Z,40.55
2022-12-14T13:24:34.000Z,43.75
2022-12-14T13:27:40.782Z,46.13
2022-12-14T13:30:50.543Z,41.63
2022-12-14T13:34:05.376Z,40.47
2022-12-14T13:36:40.761Z,43.22
2022-12-14T13:39:10.206Z,47.55
2022-12-14T13:41:49.068Z,46.47
2022-12-14T13:44:55.161Z,47.65
2022-12-14T13:47:30.439Z,44.88
2022-12-14T13:52:49.734Z,39.40
2022-12-14T13:55:32.001Z,44.63
2022-12-14T13:58:14.076Z,43.30
2022-12-14T14:00:58.889Z,45.08
2022-12-14T14:03:35.165Z,42.65
2022-12-14T14:06:08.394Z,46.40
2022-12-14T14:08:41.773Z,43.03
2022-12-14T14:11:37.001Z,43.17
2022-12-14T14:14:04.419Z,44.75
2022-12-14T14:16:39.023Z,47.40
2022-12-14T14:19:17.858Z,49.42
2022-12-14T14:22:22.303Z,50.03
2022-12-14T14:25:37.262Z,48.72
2022-12-14T14:28:04.447Z,42.92
2022-12-14T14:30:57.040Z,46.70
2022-12-14T14:33:45.535Z,47.00
2022-12-14T14:36:30.919Z,46.88
2022-12-14T14:39:54.226Z,47.92
2022-12-14T14:42:22.323Z,50.83
2022-12-14T14:45:05.655Z,50.33
2022-12-14T14:47:38.249Z,49.50
2022-12-14T14:50:16.122Z,53.00
2022-12-14T14:52:42.930Z,48.05
2022-12-14T14:58:25.673Z,47.67
2022-12-14T15:01:01.716Z,54.17
2022-12-14T15:03:45.003Z,55.40
2022-12-14T15:06:21.110Z,49.08
2022-12-14T15:09:00.377Z,51.00
2022-12-14T15:11:31.245Z,52.87
2022-12-14T15:14:02.611Z,50.40
2022-12-14T15:16:41.529Z,51.20
2022-12-14T15:19:24.798Z,50.53
2022-12-14T15:22:00.020Z,56.10
2022-12-14T15:24:27.331Z,54.63
2022-12-14T15:26:54.469Z,50.25
2022-12-14T15:29:27.782Z,56.22
2022-12-14T15:31:59.791Z,54.47
2022-12-14T15:34:27.757Z,53.78
2022-12-14T15:36:56.020Z,54.25
2022-12-14T15:39:40.015Z,48.13
2022-12-14T15:42:12.114Z,58.22
2022-12-14T15:44:43.743Z,53.45
2022-12-14T15:47:22.730Z,52.72
2022-12-14T15:49:53.358Z,57.17
2022-12-14T15:52:29.418Z,50.97
2022-12-14T15:54:56.871Z,53.35
2022-12-14T15:57:24.387Z,56.95
2022-12-14T15:59:54.980Z,54.53
2022-12-14T16:02:30.635Z,54.17
2022-12-14T16:05:01.141Z,53.08
2022-12-14T16:07:41.804Z,56.10
2022-12-14T16:10:26.211Z,55.00
2022-12-14T16:13:09.681Z,52.78
2022-12-14T16:15:36.396Z,50.88
2022-12-14T16:18:03.885Z,54.42
2022-12-14T16:20:38.265Z,54.17
2022-12-14T16:23:15.741Z,53.22
2022-12-14T16:25:58.635Z,51.55
2022-12-14T16:28:32.681Z,51.80
2022-12-14T16:31:01.596Z,58.17
2022-12-14T16:33:29.988Z,50.90
2022-12-14T16:36:03.896Z,54.72
2022-12-14T16:38:33.088Z,58.95
2022-12-14T16:41:02.402Z,56.80
2022-12-14T16:43:32.715Z,52.63
2022-12-14T16:46:05.815Z,53.15
2022-12-14T16:48:35.827Z,57.38
2022-12-14T16:51:38.279Z,57.17
2022-12-14T16:54:25.527Z,52.53
2022-12-14T16:56:57.227Z,51.33
2022-12-14T16:59:43.838Z,54.85
2022-12-14T17:02:35.169Z,51.40
2022-12-14T17:05:23.548Z,50.40
2022-12-14T17:07:50.298Z,50.45
2022-12-14T17:10:25.167Z,49.35
2022-12-14T17:12:56.782Z,48.33
2022-12-14T17:15:24.898Z,53.63
2022-12-14T17:17:54.351Z,54.65
2022-12-14T17:20:29.985Z,45.83
2022-12-14T17:22:59.844Z,46.47
2022-12-14T17:25:27.803Z,45.75
2022-12-14T17:27:54.602Z,46.25
2022-12-14T17:30:23.682Z,47.22
2022-12-14T17:32:52.620Z,49.17
2022-12-14T17:35:21.188Z,47.53
2022-12-14T17:37:49.351Z,47.60
2022-12-14T17:40:16.512Z,48.10
2022-12-14T17:42:49.369Z,54.30
2022-12-14T17:45:27.544Z,53.10
2022-12-14T17:47:54.662Z,49.25
2022-12-14T17:50:21.974Z,48.13
2022-12-14T17:52:50.354Z,43.88
2022-12-14T17:55:20.423Z,43.53
2022-12-14T17:57:47.972Z,48.80
2022-12-14T18:00:42.751Z,45.55
2022-12-14T18:03:11.306Z,42.58
2022-12-14T18:05:43.459Z,47.72
2022-12-14T18:08:13.430Z,46.28
2022-12-14T18:10:41.569Z,42.83
2022-12-14T18:13:09.865Z,43.53
2022-12-14T18:15:40.943Z,46.45
2022-12-14T18:18:08.248Z,47.28
2022-12-14T18:20:35.830Z,42.85
2022-12-14T18:23:02.571Z,42.90
2022-12-14T18:25:35.865Z,42.70
2022-12-14T18:28:05.722Z,44.10
2022-12-14T18:30:40.570Z,50.83
2022-12-14T18:33:15.997Z,53.83
2022-12-14T18:35:44.062Z,41.75
2022-12-14T18:38:11.314Z,41.63
2022-12-14T18:40:39.371Z,41.13
2022-12-14T18:43:06.311Z,49.15
2022-12-14T18:45:35.035Z,39.03
2022-12-14T18:48:02.003Z,41.55
2022-12-14T18:50:30.053Z,51.45
2022-12-14T18:52:57.283Z,46.47
2022-12-14T18:55:30.913Z,50.28
2022-12-14T18:58:00.675Z,48.33
2022-12-14T19:00:30.707Z,47.50
2022-12-14T19:02:58.862Z,49.05
2022-12-14T19:05:26.589Z,46.72
2022-12-14T19:07:53.781Z,44.85
2022-12-14T19:10:23.282Z,48.80
2022-12-14T19:12:50.695Z,43.22
2022-12-14T19:15:20.992Z,41.72
2022-12-14T19:17:48.135Z,41.70
2022-12-14T19:20:17.223Z,38.75
2022-12-14T19:22:45.092Z,38.83
2022-12-14T19:25:12.859Z,38.42
2022-12-14T19:28:15.450Z,36.55
2022-12-14T19:30:27.192Z,35.05
2022-12-14T19:32:55.980Z,32.40
2022-12-14T19:35:24.094Z,32.78
2022-12-14T19:37:51.675Z,30.33
2022-12-14T19:40:19.532Z,31.48
2022-12-14T19:42:46.915Z,30.80
2022-12-14T19:45:14.595Z,29.85
2022-12-14T19:47:42.503Z,27.70
2022-12-14T19:50:11.273Z,33.50
2022-12-14T19:52:37.967Z,32.38
2022-12-14T19:55:04.988Z,29.27
2022-12-14T19:57:31.810Z,32.17
2022-12-14T19:59:59.971Z,31.08
2022-12-14T20:02:27.110Z,28.77
2022-12-14T20:04:54.070Z,30.00
2022-12-14T20:07:20.807Z,26.08
2022-12-14T20:09:47.543Z,28.63
2022-12-14T20:12:14.416Z,29.42
2022-12-14T20:14:42.572Z,28.48
2022-12-14T20:17:10.754Z,27.83
2022-12-14T20:19:39.333Z,28.98
2022-12-14T20:22:08.562Z,26.75
2022-12-14T20:24:35.862Z,27.42
2022-12-14T20:27:02.603Z,24.88
2022-12-14T20:29:29.406Z,25.33
2022-12-14T20:31:56.398Z,22.55
2022-12-14T20:34:23.296Z,23.20
2022-12-14T20:36:50.091Z,24.15
2022-12-14T20:39:16.775Z,21.63
2022-12-14T20:41:43.602Z,21.42
2022-12-14T20:44:15.199Z,21.23
2022-12-14T20:46:44.923Z,22.92
2022-12-14T20:49:14.570Z,23.20
2022-12-14T20:51:42.709Z,24.98
2022-12-14T20:54:12.919Z,20.42
2022-12-14T20:59:07.960Z,21.17
2022-12-14T21:01:36.716Z,21.23
2022-12-14T21:04:04.274Z,20.17
2022-12-14T21:06:32.983Z,20.13
2022-12-14T21:09:09.431Z,24.67
2022-12-14T21:12:00.662Z,21.63
2022-12-14T21:14:31.038Z,20.98
2022-12-14T21:16:57.934Z,20.73
2022-12-14T21:19:24.971Z,20.05
2022-12-14T21:21:54.003Z,22.45
2022-12-14T21:24:44.822Z,23.02
2022-12-14T21:27:09.983Z,22.60
2022-12-14T21:29:36.714Z,20.25
2022-12-14T21:32:04.362Z,20.98
2022-12-14T21:34:31.920Z,23.88
2022-12-14T21:36:59.151Z,21.33
2022-12-14T21:39:25.929Z,22.63
2022-12-14T21:42:12.700Z,25.70
2022-12-14T21:44:41.410Z,23.65
2022-12-14T21:47:11.672Z,24.15
2022-12-14T21:49:39.945Z,23.20
2022-12-14T21:52:07.654Z,22.50
2022-12-14T21:54:34.714Z,24.50
2022-12-14T21:57:19.922Z,24.88
2022-12-14T21:59:46.637Z,20.98
2022-12-14T22:02:19.942Z,24.23
2022-12-14T22:04:47.679Z,22.88
2022-12-14T22:07:16.076Z,23.58
2022-12-14T22:09:43.335Z,22.02
2022-12-14T22:12:17.723Z,22.42
2022-12-14T22:14:44.670Z,21.95
2022-12-14T22:17:13.115Z,23.13
2022-12-14T22:19:40.042Z,22.80
2022-12-14T22:22:07.212Z,21.85
2022-12-14T22:24:33.946Z,21.88
2022-12-14T22:27:00.718Z,23.77
2022-12-14T22:29:27.509Z,22.92
2022-12-14T22:31:54.266Z,23.23
2022-12-14T22:34:23.187Z,24.15
2022-12-14T22:36:51.331Z,23.17
2022-12-14T22:39:18.978Z,23.23
2022-12-14T22:41:46.896Z,23.17
2022-12-14T22:44:13.622Z,22.58
2022-12-14T22:46:40.936Z,25.40
2022-12-14T22:49:08.680Z,22.75
2022-12-14T22:51:35.650Z,20.50
2022-12-14T22:54:03.084Z,20.33
2022-12-14T22:56:37.206Z,21.90
2022-12-14T22:59:09.079Z,24.95
2022-12-14T23:01:37.499Z,23.40
2022-12-14T23:04:06.200Z,22.67
2022-12-14T23:06:33.805Z,23.27
2022-12-14T23:09:19.068Z,25.77
2022-12-14T23:12:06.607Z,24.15
2022-12-14T23:14:56.250Z,24.88
2022-12-14T23:17:41.728Z,24.70
2022-12-14T23:20:27.654Z,24.92
2022-12-14T23:23:13.124Z,24.33
2022-12-14T23:25:58.586Z,21.13
2022-12-14T23:28:43.917Z,22.05
2022-12-14T23:31:35.189Z,22.38
2022-12-14T23:34:20.668Z,25.17
2022-12-14T23:37:06.219Z,23.83
2022-12-14T23:39:52.719Z,24.85
2022-12-14T23:42:38.054Z,24.30
2022-12-14T23:45:24.964Z,25.75
2022-12-14T23:48:10.439Z,25.92
2022-12-14T23:50:55.826Z,27.77
2022-12-14T23:53:41.273Z,25.95
2022-12-14T23:56:26.788Z,29.73
2022-12-14T23:59:14.154Z,28.40
